• Join FlightAware (Why Join?)
  • Login
  • US Flag 
09:23AM EDT


 

Airport Tracker/Info


-or-


 

Live Flight TrackerFlight Track Log ✈ UAL4295 ✈ 20-Apr-2013 ✈ KDCA - KEWR

Flight Track Log - Related Links

Times and Time Zones

All times are in EDT time to prevent confusion due to time zone crossing. See the UAL4295 flight status page for this flight to view local times or setup timezone preferences in your user account.

Time Position Orientation Groundspeed Altitude Reporting Facility
EDT Latitude Longitude Course Direction KTS MPH feet Rate Location/Type
05:02PM 38.9081 -77.0989 62° Northeast 177 204 2,900  Level Washington Center
05:03PM 38.9575 -77.1481 322° Northwest 204 235 5,600 2,400 Climbing Washington Center
05:04PM 38.9354 -76.7791 57° Northeast  Level FlightAware Approximate
05:04PM 39.0122 -77.1117 27° Northeast 209 241 7,800  Level Washington Center
05:05PM 38.9682 -76.6953 67° East  Level FlightAware Approximate
05:06PM 38.9976 -76.6071 67° East  Level FlightAware Approximate
05:06PM 39.0481 -76.8878 78° East 277 319 10,600  Level Washington Center
05:07PM 39.0292 -76.5201 62° Northeast  Level FlightAware Approximate
05:07PM 39.0683 -76.7600 78° East 326 375 13,000  Level Washington Center
05:08PM 39.0881 -76.6292 79° East 356 410 14,600 1,740 Climbing Washington Center
05:09PM 39.1081 -76.4958 79° East 366 421 16,500 1,200 Climbing Washington Center
05:10PM 39.1028 -76.3619 93° East 371 427 17,000 660 Climbing Washington Center
05:11PM 39.0972 -76.2228 93° East 371 427 17,900 1,200 Climbing Washington Center
05:12PM 39.0978 -76.0864 90° East 376 433 19,500 1,500 Climbing Washington Center
05:13PM 39.0942 -75.9392 92° East 392 451 20,900 720 Climbing Washington Center
05:14PM 39.1153 -75.7975 79° East 403 464 21,000 -600 Climbing Washington Center
05:15PM 39.1906 -75.6853 49° Northeast 386 444 19,700 -1,020 Descending Washington Center
05:16PM 39.2697 -75.5942 42° Northeast 388 447 19,000 -360 Descending Washington Center
05:17PM 39.3697 -75.5458 20° North 365 420 19,000  Level Washington Center
05:18PM 39.4656 -75.5003 20° North 359 413 19,000  Level Washington Center
05:19PM 39.5656 -75.4650 15° North 365 420 19,000  Level Washington Center
05:20PM 39.6656 -75.4514 North 365 420 19,000  Level Washington Center
05:21PM 39.7633 -75.4214 13° North 365 420 19,000 -420 Level Washington Center
05:22PM 39.8569 -75.3508 30° Northeast 373 429 18,200 -1,560 Descending Washington Center
05:23PM 39.9569 -75.2719 31° Northeast 373 429 15,900 -2,040 Descending Washington Center
05:24PM 40.0192 -75.1742 50° Northeast 346 398 14,200 -1,500 Descending Washington Center
05:25PM 40.0414 -75.0467 77° East 338 389 12,900 -660 Descending Washington Center
05:26PM 40.1100 -74.9811 36° Northeast 311 358 12,900 -960 Level Washington Center
05:27PM 40.1950 -74.9397 20° North 305 351 11,000 -2,100 Descending Washington Center
05:28PM 40.2739 -74.8956 23° Northeast 305 351 8,800 -1,560 Descending Washington Center
05:29PM 40.2692 -74.8139 94° East 200 230 7,900 -480 Descending Washington Center
05:30PM 40.2089 -74.8228 186° South 104 120 7,900  Level Washington Center
05:31PM 40.1675 -74.8775 225° Southwest 135 155 7,900  Level Washington Center
05:32PM 40.1450 -74.9428 246° West 169 194 7,900 60 Level Washington Center
05:33PM 40.1667 -74.9667 320° Northwest 221 254 8,000 60 Climbing New York TRACON
05:34PM 40.2167 -74.9500 14° North 249 287 8,000  Level New York TRACON
05:35PM 40.2667 -74.8833 45° Northeast 282 325 8,000  Level New York TRACON
05:36PM 40.3167 -74.8167 45° Northeast 279 321 8,000 -60 Level New York TRACON
05:37PM 40.3833 -74.7333 44° Northeast 272 313 7,900 -120 Descending New York TRACON
05:39PM 40.4833 -74.6500 32° Northeast 222 255 7,700 -420 Descending New York TRACON
05:40PM 40.5500 -74.6333 11° North 224 258 6,700 -900 Descending New York TRACON
05:41PM 40.6000 -74.6167 14° North 218 251 6,000 -420 Descending New York TRACON
05:42PM 40.6500 -74.6000 14° North 224 258 6,000  Level New York TRACON
05:43PM 40.7333 -74.5833 North 222 255 6,000 -120 Level New York TRACON
05:44PM 40.7833 -74.5667 14° North 217 250 5,800 -540 Descending New York TRACON
05:45PM 40.8333 -74.5500 14° North 223 257 5,000 -420 Descending New York TRACON
05:46PM 40.8833 -74.5000 37° Northeast 234 269 5,000  Level New York TRACON
05:47PM 40.9333 -74.4500 37° Northeast 229 264 5,000  Level New York TRACON
05:48PM 40.9667 -74.3667 62° Northeast 239 275 5,000  Level New York TRACON
05:49PM 40.9667 -74.2833 90° East 205 236 5,000 -480 Level New York TRACON
05:50PM 40.9667 -74.2167 90° East 205 236 4,100 -600 Descending New York TRACON
05:51PM 40.9500 -74.1500 108° East 200 230 3,900 -540 Descending New York TRACON
05:52PM 40.9167 -74.1000 131° Southeast 195 224 3,100 -480 Descending New York TRACON
05:53PM 40.8833 -74.0500 131° Southeast 187 215 3,000 -180 Descending New York TRACON
05:54PM 40.8333 -74.0833 207° Southwest 168 193 2,800 -240 Descending New York TRACON